createdAt,value
2022-11-06T00:03:24.799Z,2.65
2022-11-06T00:08:45.974Z,2.85
2022-11-06T00:13:48.139Z,2.72
2022-11-06T00:18:50.428Z,2.30
2022-11-06T00:23:53.389Z,2.50
2022-11-06T00:28:56.274Z,2.50
2022-11-06T00:33:59.911Z,2.95
2022-11-06T00:39:02.111Z,2.83
2022-11-06T00:44:04.828Z,2.70
2022-11-06T00:49:06.673Z,2.67
2022-11-06T00:54:11.461Z,2.40
2022-11-06T00:59:14.151Z,2.63
2022-11-06T01:04:21.152Z,2.63
2022-11-06T01:09:26.301Z,2.10
2022-11-06T01:14:28.376Z,2.75
2022-11-06T01:19:30.117Z,2.03
2022-11-06T01:24:32.185Z,2.17
2022-11-06T01:29:34.137Z,1.63
2022-11-06T01:34:35.904Z,1.88
2022-11-06T01:39:37.602Z,2.20
2022-11-06T01:44:42.311Z,2.28
2022-11-06T01:49:44.914Z,2.47
2022-11-06T01:54:51.335Z,2.40
2022-11-06T01:59:55.524Z,2.80
2022-11-06T02:04:57.220Z,2.42
2022-11-06T02:09:58.922Z,2.60
2022-11-06T02:15:26.527Z,3.03
2022-11-06T02:21:05.955Z,2.20
2022-11-06T02:26:46.536Z,2.40
2022-11-06T02:31:52.086Z,2.78
2022-11-06T02:37:02.131Z,2.03
2022-11-06T02:42:06.112Z,2.77
2022-11-06T02:47:14.866Z,1.90
2022-11-06T02:52:22.509Z,2.45
2022-11-06T02:57:27.031Z,2.60
2022-11-06T03:02:34.325Z,1.90
2022-11-06T03:07:43.649Z,2.50
2022-11-06T03:12:54.091Z,2.28
2022-11-06T03:18:17.202Z,2.20
2022-11-06T03:23:27.286Z,2.05
2022-11-06T03:28:36.710Z,2.53
2022-11-06T03:33:50.732Z,2.28
2022-11-06T03:39:04.663Z,2.30
2022-11-06T03:44:11.275Z,1.75
2022-11-06T03:49:20.561Z,3.20
2022-11-06T03:54:26.781Z,2.60
2022-11-06T03:59:34.286Z,2.00
2022-11-06T04:04:41.832Z,1.88
2022-11-06T04:10:09.717Z,2.08
2022-11-06T04:15:17.078Z,1.85
2022-11-06T04:20:42.239Z,2.30
2022-11-06T04:26:37.095Z,2.47
2022-11-06T04:32:03.516Z,2.63
2022-11-06T04:37:24.154Z,2.72
2022-11-06T04:42:46.089Z,1.95
2022-11-06T04:47:49.585Z,2.28
2022-11-06T04:52:53.228Z,2.20
2022-11-06T04:57:54.995Z,2.70
2022-11-06T05:02:56.864Z,2.35
2022-11-06T05:07:58.702Z,2.38
2022-11-06T05:13:00.504Z,2.83
2022-11-06T05:18:02.469Z,2.38
2022-11-06T05:23:04.259Z,2.45
2022-11-06T05:28:07.739Z,2.60
2022-11-06T05:33:09.458Z,2.00
2022-11-06T05:38:11.675Z,2.53
2022-11-06T05:43:13.946Z,2.00
2022-11-06T05:48:16.201Z,2.25
2022-11-06T05:53:18.217Z,2.63
2022-11-06T05:58:20.127Z,2.40
2022-11-06T06:03:22.333Z,1.80
2022-11-06T06:08:24.176Z,2.00
2022-11-06T06:13:26.051Z,3.00
2022-11-06T06:18:27.786Z,2.25
2022-11-06T06:23:29.588Z,2.05
2022-11-06T06:28:31.887Z,2.83
2022-11-06T06:33:33.738Z,2.25
2022-11-06T06:38:35.463Z,1.90
2022-11-06T06:43:37.231Z,2.15
2022-11-06T06:48:38.953Z,1.88
2022-11-06T06:53:40.741Z,2.10
2022-11-06T06:58:42.486Z,1.80
2022-11-06T07:03:44.331Z,2.35
2022-11-06T07:08:46.121Z,2.45
2022-11-06T07:13:47.888Z,1.85
2022-11-06T07:18:49.718Z,1.80
2022-11-06T07:23:51.594Z,1.90
2022-11-06T07:28:53.425Z,1.42
2022-11-06T07:33:55.150Z,2.28
2022-11-06T07:38:58.305Z,1.63
2022-11-06T07:44:00.090Z,1.90
2022-11-06T07:49:01.869Z,2.50
2022-11-06T07:54:03.678Z,1.80
2022-11-06T07:59:05.659Z,1.60
2022-11-06T08:04:07.564Z,1.48
2022-11-06T08:09:09.522Z,1.80
2022-11-06T08:14:11.697Z,1.75
2022-11-06T08:19:13.605Z,2.22
2022-11-06T08:24:20.655Z,2.22
2022-11-06T08:29:23.563Z,2.33
2022-11-06T08:34:25.488Z,2.17
2022-11-06T08:39:27.201Z,2.30
2022-11-06T08:44:28.942Z,2.00
2022-11-06T08:49:30.750Z,2.20
2022-11-06T08:54:32.448Z,1.92
2022-11-06T08:59:34.341Z,1.70
2022-11-06T09:04:41.073Z,2.10
2022-11-06T09:09:43.138Z,1.80
2022-11-06T09:14:45.370Z,1.92
2022-11-06T09:19:47.099Z,1.92
2022-11-06T09:25:03.203Z,1.50
2022-11-06T09:30:06.546Z,2.42
2022-11-06T09:35:08.679Z,2.13
2022-11-06T09:40:42.256Z,1.52
2022-11-06T09:45:45.500Z,2.22
2022-11-06T09:50:58.360Z,1.30
2022-11-06T09:56:02.759Z,1.52
2022-11-06T10:01:23.411Z,1.63
2022-11-06T10:06:28.805Z,2.17
2022-11-06T10:11:52.069Z,1.73
2022-11-06T10:17:26.606Z,1.65
2022-11-06T10:22:39.598Z,1.67
2022-11-06T10:27:46.991Z,1.90
2022-11-06T10:33:03.518Z,1.75
2022-11-06T10:38:22.126Z,2.00
2022-11-06T10:43:40.218Z,2.00
2022-11-06T10:48:48.234Z,2.05
2022-11-06T10:54:07.821Z,1.67
2022-11-06T10:59:09.682Z,1.80
2022-11-06T11:04:11.461Z,1.50
2022-11-06T11:09:29.159Z,1.58
2022-11-06T11:14:32.255Z,1.40
2022-11-06T11:19:41.181Z,1.35
2022-11-06T11:25:03.135Z,1.50
2022-11-06T11:30:06.193Z,1.30
2022-11-06T11:35:11.316Z,1.50
2022-11-06T11:40:23.386Z,1.42
2022-11-06T11:45:25.363Z,1.35
2022-11-06T11:50:32.977Z,1.17
2022-11-06T11:55:43.574Z,1.33
2022-11-06T12:00:59.238Z,1.30
2022-11-06T12:06:13.967Z,1.50
2022-11-06T12:11:22.296Z,1.48
2022-11-06T12:16:24.116Z,1.23
2022-11-06T12:21:37.705Z,1.63
2022-11-06T12:27:01.625Z,1.15
2022-11-06T12:32:21.260Z,2.10
2022-11-06T12:37:48.740Z,2.10
2022-11-06T12:43:10.681Z,1.42
2022-11-06T12:48:29.443Z,1.90
2022-11-06T12:53:54.603Z,1.42
2022-11-06T12:59:04.484Z,1.25
2022-11-06T13:04:29.638Z,1.67
2022-11-06T13:09:36.738Z,1.42
2022-11-06T13:14:56.545Z,1.40
2022-11-06T13:20:03.695Z,1.52
2022-11-06T13:25:43.470Z,2.05
2022-11-06T13:30:46.160Z,1.50
2022-11-06T13:35:48.019Z,1.90
2022-11-06T13:40:53.777Z,1.40
2022-11-06T13:46:05.757Z,1.70
2022-11-06T13:51:23.961Z,1.83
2022-11-06T13:56:40.285Z,1.88
2022-11-06T14:01:57.197Z,1.77
2022-11-06T14:07:01.439Z,1.90
2022-11-06T14:12:10.021Z,2.08
2022-11-06T14:17:23.722Z,1.75
2022-11-06T14:22:36.703Z,1.73
2022-11-06T14:28:01.410Z,1.40
2022-11-06T14:33:09.762Z,1.40
2022-11-06T14:38:29.541Z,1.95
2022-11-06T14:43:34.059Z,2.28
2022-11-06T14:48:39.691Z,1.30
2022-11-06T14:53:54.068Z,1.75
2022-11-06T14:59:02.164Z,1.65
2022-11-06T15:04:06.459Z,1.90
2022-11-06T15:09:14.819Z,1.60
2022-11-06T15:14:16.603Z,1.80
2022-11-06T15:19:39.277Z,1.42
2022-11-06T15:24:53.419Z,1.35
2022-11-06T15:30:00.158Z,1.65
2022-11-06T15:35:05.468Z,1.65
2022-11-06T15:40:21.517Z,1.70
2022-11-06T15:45:26.209Z,1.90
2022-11-06T15:50:30.191Z,2.00
2022-11-06T15:55:35.108Z,1.83
2022-11-06T16:00:41.316Z,1.80
2022-11-06T16:05:43.663Z,1.70
2022-11-06T16:10:49.619Z,2.22
2022-11-06T16:16:01.100Z,2.00
2022-11-06T16:21:19.098Z,2.30
2022-11-06T16:26:32.982Z,2.10
2022-11-06T16:31:35.213Z,2.10
2022-11-06T16:37:00.285Z,2.47
2022-11-06T16:42:06.614Z,2.10
2022-11-06T16:47:11.342Z,1.77
2022-11-06T16:52:39.064Z,2.80
2022-11-06T16:57:52.712Z,2.05
2022-11-06T17:03:09.055Z,1.83
2022-11-06T17:08:36.020Z,2.47
2022-11-06T17:13:37.960Z,2.72
2022-11-06T17:18:39.833Z,2.95
2022-11-06T17:23:42.509Z,2.13
2022-11-06T17:28:44.375Z,2.45
2022-11-06T17:33:46.470Z,2.60
2022-11-06T17:38:48.710Z,4.32
2022-11-06T17:43:50.433Z,2.70
2022-11-06T17:48:54.281Z,2.30
2022-11-06T17:53:56.046Z,2.58
2022-11-06T17:58:57.829Z,2.78
2022-11-06T18:03:59.779Z,2.35
2022-11-06T18:09:06.795Z,2.60
2022-11-06T18:14:09.543Z,2.28
2022-11-06T18:19:15.173Z,2.42
2022-11-06T18:24:17.180Z,2.80
2022-11-06T18:29:19.433Z,2.88
2022-11-06T18:34:21.575Z,2.80
2022-11-06T18:39:24.439Z,3.13
2022-11-06T18:44:26.529Z,3.17
2022-11-06T18:49:28.327Z,3.35
2022-11-06T18:54:31.433Z,3.30
2022-11-06T18:59:35.988Z,3.20
2022-11-06T19:04:37.949Z,3.33
2022-11-06T19:09:40.171Z,2.80
2022-11-06T19:14:44.596Z,3.30
2022-11-06T19:19:48.742Z,3.00
2022-11-06T19:24:50.573Z,3.28
2022-11-06T19:29:52.791Z,3.67
2022-11-06T19:34:54.574Z,3.67
2022-11-06T19:39:57.597Z,3.55
2022-11-06T19:45:01.583Z,3.40
2022-11-06T19:50:05.250Z,4.03
2022-11-06T19:55:27.101Z,2.95
2022-11-06T20:00:29.385Z,3.67
2022-11-06T20:05:31.358Z,3.67
2022-11-06T20:10:36.045Z,3.28
2022-11-06T20:15:37.879Z,3.67
2022-11-06T20:20:39.782Z,2.80
2022-11-06T20:25:41.934Z,3.20
2022-11-06T20:30:44.000Z,3.28
2022-11-06T20:35:46.300Z,3.63
2022-11-06T20:40:48.212Z,3.15
2022-11-06T20:45:50.194Z,2.97
2022-11-06T20:51:00.452Z,2.78
2022-11-06T20:56:04.853Z,3.20
2022-11-06T21:01:11.091Z,2.90
2022-11-06T21:06:13.936Z,2.83
2022-11-06T21:11:19.742Z,3.15
2022-11-06T21:16:27.729Z,2.42
2022-11-06T21:21:33.164Z,3.13
2022-11-06T21:26:37.797Z,2.90
2022-11-06T21:31:45.674Z,2.63
2022-11-06T21:36:50.620Z,2.83
2022-11-06T21:41:52.339Z,3.15
2022-11-06T21:46:54.199Z,2.50
2022-11-06T21:52:15.932Z,2.78
2022-11-06T21:57:17.712Z,3.03
2022-11-06T22:02:19.630Z,3.03
2022-11-06T22:07:21.521Z,3.10
2022-11-06T22:12:24.054Z,2.95
2022-11-06T22:17:25.835Z,2.90
2022-11-06T22:22:27.745Z,3.25
2022-11-06T22:27:29.529Z,2.83
2022-11-06T22:32:31.310Z,3.42
2022-11-06T22:37:33.092Z,3.40
2022-11-06T22:42:35.031Z,3.13
2022-11-06T22:47:36.799Z,2.65
2022-11-06T22:52:38.523Z,2.55
2022-11-06T22:57:40.363Z,3.15
2022-11-06T23:02:42.124Z,2.80
2022-11-06T23:07:43.897Z,2.95
2022-11-06T23:12:45.649Z,3.17
2022-11-06T23:17:48.600Z,2.28
2022-11-06T23:22:51.383Z,2.65
2022-11-06T23:27:53.502Z,2.33
2022-11-06T23:32:55.524Z,2.33
2022-11-06T23:37:57.230Z,2.72
2022-11-06T23:42:59.119Z,2.13
2022-11-06T23:48:04.635Z,2.83
2022-11-06T23:53:09.399Z,2.50
2022-11-06T23:58:11.526Z,2.30
